sensor_id;sensor_type;location;lat;lon;timestamp;temperature;humidity
12229;DHT22;6177;52.402;9.800;2022-07-22T00:02:43;19.60;82.90
12229;DHT22;6177;52.402;9.800;2022-07-22T00:05:28;19.70;82.90
12229;DHT22;6177;52.402;9.800;2022-07-22T00:08:12;19.70;83.20
12229;DHT22;6177;52.402;9.800;2022-07-22T00:10:56;19.60;82.70
12229;DHT22;6177;52.402;9.800;2022-07-22T00:13:41;19.60;82.70
12229;DHT22;6177;52.402;9.800;2022-07-22T00:16:25;19.50;82.90
12229;DHT22;6177;52.402;9.800;2022-07-22T00:19:10;19.50;83.20
12229;DHT22;6177;52.402;9.800;2022-07-22T00:21:54;19.40;83.40
12229;DHT22;6177;52.402;9.800;2022-07-22T00:24:39;19.30;83.70
12229;DHT22;6177;52.402;9.800;2022-07-22T00:27:23;19.30;84.00
12229;DHT22;6177;52.402;9.800;2022-07-22T00:30:09;19.30;84.20
12229;DHT22;6177;52.402;9.800;2022-07-22T00:32:53;19.30;84.30
12229;DHT22;6177;52.402;9.800;2022-07-22T00:35:38;19.20;84.60
12229;DHT22;6177;52.402;9.800;2022-07-22T00:38:23;19.30;84.60
12229;DHT22;6177;52.402;9.800;2022-07-22T00:41:07;19.40;84.60
12229;DHT22;6177;52.402;9.800;2022-07-22T00:46:36;19.50;84.30
12229;DHT22;6177;52.402;9.800;2022-07-22T00:49:20;19.50;84.30
12229;DHT22;6177;52.402;9.800;2022-07-22T00:52:05;19.50;84.50
12229;DHT22;6177;52.402;9.800;2022-07-22T00:54:50;19.50;84.40
12229;DHT22;6177;52.402;9.800;2022-07-22T00:57:35;19.50;84.40
12229;DHT22;6177;52.402;9.800;2022-07-22T01:00:20;19.50;84.50
12229;DHT22;6177;52.402;9.800;2022-07-22T01:03:04;19.50;84.50
12229;DHT22;6177;52.402;9.800;2022-07-22T01:05:49;19.50;84.70
12229;DHT22;6177;52.402;9.800;2022-07-22T01:08:34;19.50;84.70
12229;DHT22;6177;52.402;9.800;2022-07-22T01:11:19;19.60;84.60
12229;DHT22;6177;52.402;9.800;2022-07-22T01:14:04;19.60;84.70
12229;DHT22;6177;52.402;9.800;2022-07-22T01:16:48;19.60;84.70
12229;DHT22;6177;52.402;9.800;2022-07-22T01:19:36;19.60;84.70
12229;DHT22;6177;52.402;9.800;2022-07-22T01:22:23;19.60;84.70
12229;DHT22;6177;52.402;9.800;2022-07-22T01:25:07;19.60;84.80
12229;DHT22;6177;52.402;9.800;2022-07-22T01:27:53;19.60;84.90
12229;DHT22;6177;52.402;9.800;2022-07-22T01:30:37;19.70;84.70
12229;DHT22;6177;52.402;9.800;2022-07-22T01:33:22;19.80;84.70
12229;DHT22;6177;52.402;9.800;2022-07-22T01:36:07;19.80;84.60
12229;DHT22;6177;52.402;9.800;2022-07-22T01:38:52;19.90;85.00
12229;DHT22;6177;52.402;9.800;2022-07-22T01:41:37;19.90;85.40
12229;DHT22;6177;52.402;9.800;2022-07-22T01:44:22;19.90;86.00
12229;DHT22;6177;52.402;9.800;2022-07-22T01:47:08;19.80;86.40
12229;DHT22;6177;52.402;9.800;2022-07-22T01:49:52;19.80;86.90
12229;DHT22;6177;52.402;9.800;2022-07-22T01:52:39;19.80;87.40
12229;DHT22;6177;52.402;9.800;2022-07-22T01:55:23;19.70;88.00
12229;DHT22;6177;52.402;9.800;2022-07-22T01:58:08;19.70;88.60
12229;DHT22;6177;52.402;9.800;2022-07-22T02:00:53;19.60;89.10
12229;DHT22;6177;52.402;9.800;2022-07-22T02:03:38;19.60;89.60
12229;DHT22;6177;52.402;9.800;2022-07-22T02:06:25;19.70;89.90
12229;DHT22;6177;52.402;9.800;2022-07-22T02:09:11;19.50;90.20
12229;DHT22;6177;52.402;9.800;2022-07-22T02:11:59;19.60;90.50
12229;DHT22;6177;52.402;9.800;2022-07-22T02:14:44;19.50;90.80
12229;DHT22;6177;52.402;9.800;2022-07-22T02:17:29;19.40;91.00
12229;DHT22;6177;52.402;9.800;2022-07-22T02:20:14;19.30;91.20
12229;DHT22;6177;52.402;9.800;2022-07-22T02:22:58;19.20;91.20
12229;DHT22;6177;52.402;9.800;2022-07-22T02:25:43;19.20;91.40
12229;DHT22;6177;52.402;9.800;2022-07-22T02:28:28;19.00;91.60
12229;DHT22;6177;52.402;9.800;2022-07-22T02:31:13;19.00;91.70
12229;DHT22;6177;52.402;9.800;2022-07-22T02:33:58;18.90;91.70
12229;DHT22;6177;52.402;9.800;2022-07-22T02:36:45;18.80;91.70
12229;DHT22;6177;52.402;9.800;2022-07-22T02:39:30;18.80;91.40
12229;DHT22;6177;52.402;9.800;2022-07-22T02:42:14;18.80;90.80
12229;DHT22;6177;52.402;9.800;2022-07-22T02:44:59;18.80;89.60
12229;DHT22;6177;52.402;9.800;2022-07-22T02:47:48;18.70;89.00
12229;DHT22;6177;52.402;9.800;2022-07-22T02:50:33;18.60;88.90
12229;DHT22;6177;52.402;9.800;2022-07-22T02:53:19;18.60;88.40
12229;DHT22;6177;52.402;9.800;2022-07-22T02:56:04;18.60;88.40
12229;DHT22;6177;52.402;9.800;2022-07-22T02:58:50;18.60;88.20
12229;DHT22;6177;52.402;9.800;2022-07-22T03:01:37;18.50;88.90
12229;DHT22;6177;52.402;9.800;2022-07-22T03:04:21;18.50;89.10
12229;DHT22;6177;52.402;9.800;2022-07-22T03:07:06;18.50;89.20
12229;DHT22;6177;52.402;9.800;2022-07-22T03:09:50;18.40;89.40
12229;DHT22;6177;52.402;9.800;2022-07-22T03:12:35;18.50;89.40
12229;DHT22;6177;52.402;9.800;2022-07-22T03:15:20;18.40;89.60
12229;DHT22;6177;52.402;9.800;2022-07-22T03:18:05;18.40;89.40
12229;DHT22;6177;52.402;9.800;2022-07-22T03:20:49;18.40;89.40
12229;DHT22;6177;52.402;9.800;2022-07-22T03:23:34;18.30;89.10
12229;DHT22;6177;52.402;9.800;2022-07-22T03:26:19;18.20;89.50
12229;DHT22;6177;52.402;9.800;2022-07-22T03:29:04;18.20;89.30
12229;DHT22;6177;52.402;9.800;2022-07-22T03:31:48;18.20;89.30
12229;DHT22;6177;52.402;9.800;2022-07-22T03:34:36;18.20;89.10
12229;DHT22;6177;52.402;9.800;2022-07-22T03:37:24;18.30;88.40
12229;DHT22;6177;52.402;9.800;2022-07-22T03:40:09;18.20;88.60
12229;DHT22;6177;52.402;9.800;2022-07-22T03:42:55;18.20;88.50
12229;DHT22;6177;52.402;9.800;2022-07-22T03:45:39;18.10;88.60
12229;DHT22;6177;52.402;9.800;2022-07-22T03:48:27;18.10;88.80
12229;DHT22;6177;52.402;9.800;2022-07-22T03:51:12;18.10;89.10
12229;DHT22;6177;52.402;9.800;2022-07-22T03:53:56;18.20;88.50
12229;DHT22;6177;52.402;9.800;2022-07-22T03:56:41;18.20;88.60
12229;DHT22;6177;52.402;9.800;2022-07-22T03:59:25;18.20;88.80
12229;DHT22;6177;52.402;9.800;2022-07-22T04:02:10;18.20;88.20
12229;DHT22;6177;52.402;9.800;2022-07-22T04:04:55;18.30;87.40
12229;DHT22;6177;52.402;9.800;2022-07-22T04:07:39;18.30;86.90
12229;DHT22;6177;52.402;9.800;2022-07-22T04:10:24;18.20;86.90
12229;DHT22;6177;52.402;9.800;2022-07-22T04:13:08;18.30;86.20
12229;DHT22;6177;52.402;9.800;2022-07-22T04:16:28;18.20;86.50
12229;DHT22;6177;52.402;9.800;2022-07-22T04:19:18;18.20;86.40
12229;DHT22;6177;52.402;9.800;2022-07-22T04:22:10;18.20;86.30
12229;DHT22;6177;52.402;9.800;2022-07-22T04:24:55;18.30;85.80
12229;DHT22;6177;52.402;9.800;2022-07-22T04:27:39;18.20;86.00
12229;DHT22;6177;52.402;9.800;2022-07-22T04:30:25;18.30;84.90
12229;DHT22;6177;52.402;9.800;2022-07-22T04:33:10;18.30;84.70
12229;DHT22;6177;52.402;9.800;2022-07-22T04:35:54;18.30;84.50
12229;DHT22;6177;52.402;9.800;2022-07-22T04:38:39;18.40;84.30
12229;DHT22;6177;52.402;9.800;2022-07-22T04:41:27;18.30;84.60
12229;DHT22;6177;52.402;9.800;2022-07-22T04:44:11;18.30;84.50
12229;DHT22;6177;52.402;9.800;2022-07-22T04:46:56;18.30;84.80
12229;DHT22;6177;52.402;9.800;2022-07-22T04:49:40;18.20;84.90
12229;DHT22;6177;52.402;9.800;2022-07-22T04:52:26;18.20;85.00
12229;DHT22;6177;52.402;9.800;2022-07-22T04:55:10;18.30;84.50
12229;DHT22;6177;52.402;9.800;2022-07-22T04:57:54;18.30;84.30
12229;DHT22;6177;52.402;9.800;2022-07-22T05:00:39;18.30;83.80
12229;DHT22;6177;52.402;9.800;2022-07-22T05:03:24;18.30;83.70
12229;DHT22;6177;52.402;9.800;2022-07-22T05:06:11;18.30;83.90
12229;DHT22;6177;52.402;9.800;2022-07-22T05:08:58;18.30;83.90
12229;DHT22;6177;52.402;9.800;2022-07-22T05:11:46;18.30;83.30
12229;DHT22;6177;52.402;9.800;2022-07-22T05:14:34;18.30;82.60
12229;DHT22;6177;52.402;9.800;2022-07-22T05:17:19;18.40;82.20
12229;DHT22;6177;52.402;9.800;2022-07-22T05:20:21;18.30;82.30
12229;DHT22;6177;52.402;9.800;2022-07-22T05:23:05;18.40;82.30
12229;DHT22;6177;52.402;9.800;2022-07-22T05:25:52;18.50;81.50
12229;DHT22;6177;52.402;9.800;2022-07-22T05:28:38;18.40;81.40
12229;DHT22;6177;52.402;9.800;2022-07-22T05:31:22;18.50;80.60
12229;DHT22;6177;52.402;9.800;2022-07-22T05:34:06;18.40;80.50
12229;DHT22;6177;52.402;9.800;2022-07-22T05:36:57;18.50;80.30
12229;DHT22;6177;52.402;9.800;2022-07-22T05:39:42;18.50;80.00
12229;DHT22;6177;52.402;9.800;2022-07-22T05:42:27;18.50;79.80
12229;DHT22;6177;52.402;9.800;2022-07-22T05:45:11;18.50;80.00
12229;DHT22;6177;52.402;9.800;2022-07-22T05:47:56;18.60;80.30
12229;DHT22;6177;52.402;9.800;2022-07-22T05:50:40;18.70;79.90
12229;DHT22;6177;52.402;9.800;2022-07-22T05:53:25;18.70;79.70
12229;DHT22;6177;52.402;9.800;2022-07-22T05:56:11;18.70;79.60
12229;DHT22;6177;52.402;9.800;2022-07-22T05:58:55;18.70;79.10
12229;DHT22;6177;52.402;9.800;2022-07-22T06:01:41;18.70;78.60
12229;DHT22;6177;52.402;9.800;2022-07-22T06:04:47;18.70;78.20
12229;DHT22;6177;52.402;9.800;2022-07-22T06:07:37;18.70;78.10
12229;DHT22;6177;52.402;9.800;2022-07-22T06:10:21;18.60;78.40
12229;DHT22;6177;52.402;9.800;2022-07-22T06:13:06;18.70;78.40
12229;DHT22;6177;52.402;9.800;2022-07-22T06:15:50;18.70;78.60
12229;DHT22;6177;52.402;9.800;2022-07-22T06:18:35;18.80;78.30
12229;DHT22;6177;52.402;9.800;2022-07-22T06:21:20;18.80;78.30
12229;DHT22;6177;52.402;9.800;2022-07-22T06:24:05;18.80;78.10
12229;DHT22;6177;52.402;9.800;2022-07-22T06:26:50;18.80;78.20
12229;DHT22;6177;52.402;9.800;2022-07-22T06:29:35;18.90;77.70
12229;DHT22;6177;52.402;9.800;2022-07-22T06:32:20;18.90;77.80
12229;DHT22;6177;52.402;9.800;2022-07-22T06:35:05;18.90;77.80
12229;DHT22;6177;52.402;9.800;2022-07-22T06:37:50;19.00;77.60
12229;DHT22;6177;52.402;9.800;2022-07-22T06:40:35;19.10;77.70
12229;DHT22;6177;52.402;9.800;2022-07-22T06:43:40;19.20;77.30
12229;DHT22;6177;52.402;9.800;2022-07-22T06:46:43;19.40;76.60
12229;DHT22;6177;52.402;9.800;2022-07-22T06:49:28;19.60;76.40
12229;DHT22;6177;52.402;9.800;2022-07-22T06:52:13;19.70;75.70
12229;DHT22;6177;52.402;9.800;2022-07-22T06:54:58;19.80;74.40
12229;DHT22;6177;52.402;9.800;2022-07-22T06:57:47;19.90;74.20
12229;DHT22;6177;52.402;9.800;2022-07-22T07:00:32;19.90;73.90
12229;DHT22;6177;52.402;9.800;2022-07-22T07:03:36;19.90;73.90
12229;DHT22;6177;52.402;9.800;2022-07-22T07:06:23;20.00;73.30
12229;DHT22;6177;52.402;9.800;2022-07-22T07:09:18;20.00;72.90
12229;DHT22;6177;52.402;9.800;2022-07-22T07:12:11;20.00;73.00
12229;DHT22;6177;52.402;9.800;2022-07-22T07:15:25;20.00;72.60
12229;DHT22;6177;52.402;9.800;2022-07-22T07:18:12;20.10;73.10
12229;DHT22;6177;52.402;9.800;2022-07-22T07:20:57;20.30;72.40
12229;DHT22;6177;52.402;9.800;2022-07-22T07:23:41;20.30;72.10
12229;DHT22;6177;52.402;9.800;2022-07-22T07:26:26;20.40;72.00
12229;DHT22;6177;52.402;9.800;2022-07-22T07:29:11;20.30;71.70
12229;DHT22;6177;52.402;9.800;2022-07-22T07:31:58;20.20;71.60
12229;DHT22;6177;52.402;9.800;2022-07-22T07:34:43;20.00;71.90
12229;DHT22;6177;52.402;9.800;2022-07-22T07:37:27;19.90;72.20
12229;DHT22;6177;52.402;9.800;2022-07-22T07:40:11;19.80;72.30
12229;DHT22;6177;52.402;9.800;2022-07-22T07:42:56;19.70;72.70
12229;DHT22;6177;52.402;9.800;2022-07-22T07:45:40;19.60;72.80
12229;DHT22;6177;52.402;9.800;2022-07-22T07:48:25;19.60;73.20
12229;DHT22;6177;52.402;9.800;2022-07-22T07:51:10;19.60;73.50
12229;DHT22;6177;52.402;9.800;2022-07-22T07:53:55;19.60;73.70
12229;DHT22;6177;52.402;9.800;2022-07-22T07:56:40;19.70;73.70
12229;DHT22;6177;52.402;9.800;2022-07-22T07:59:25;19.80;73.30
12229;DHT22;6177;52.402;9.800;2022-07-22T08:02:10;20.00;72.60
12229;DHT22;6177;52.402;9.800;2022-07-22T08:04:54;20.10;71.90
12229;DHT22;6177;52.402;9.800;2022-07-22T08:07:39;20.40;71.40
12229;DHT22;6177;52.402;9.800;2022-07-22T08:10:25;20.70;69.80
12229;DHT22;6177;52.402;9.800;2022-07-22T08:13:25;20.80;69.10
12229;DHT22;6177;52.402;9.800;2022-07-22T08:16:32;20.80;69.20
12229;DHT22;6177;52.402;9.800;2022-07-22T08:19:17;21.00;69.00
12229;DHT22;6177;52.402;9.800;2022-07-22T08:22:02;21.20;68.60
12229;DHT22;6177;52.402;9.800;2022-07-22T08:24:49;21.50;68.00
12229;DHT22;6177;52.402;9.800;2022-07-22T08:27:35;21.50;67.80
12229;DHT22;6177;52.402;9.800;2022-07-22T08:30:20;21.50;67.80
12229;DHT22;6177;52.402;9.800;2022-07-22T08:33:07;21.40;67.20
12229;DHT22;6177;52.402;9.800;2022-07-22T08:35:54;21.30;67.40
12229;DHT22;6177;52.402;9.800;2022-07-22T08:38:38;21.20;67.30
12229;DHT22;6177;52.402;9.800;2022-07-22T08:41:23;21.20;67.70
12229;DHT22;6177;52.402;9.800;2022-07-22T08:44:09;21.30;67.70
12229;DHT22;6177;52.402;9.800;2022-07-22T08:46:54;21.40;67.20
12229;DHT22;6177;52.402;9.800;2022-07-22T08:49:39;21.50;66.80
12229;DHT22;6177;52.402;9.800;2022-07-22T08:52:37;21.30;66.90
12229;DHT22;6177;52.402;9.800;2022-07-22T08:55:21;21.20;66.90
12229;DHT22;6177;52.402;9.800;2022-07-22T08:58:06;21.20;67.10
12229;DHT22;6177;52.402;9.800;2022-07-22T09:01:10;21.30;67.10
12229;DHT22;6177;52.402;9.800;2022-07-22T09:04:03;21.40;67.00
12229;DHT22;6177;52.402;9.800;2022-07-22T09:06:52;21.70;66.80
12229;DHT22;6177;52.402;9.800;2022-07-22T09:09:37;22.00;66.30
12229;DHT22;6177;52.402;9.800;2022-07-22T09:12:52;22.20;65.60
12229;DHT22;6177;52.402;9.800;2022-07-22T09:15:58;22.40;65.50
12229;DHT22;6177;52.402;9.800;2022-07-22T09:19:01;22.50;65.00
12229;DHT22;6177;52.402;9.800;2022-07-22T09:21:45;22.40;64.90
12229;DHT22;6177;52.402;9.800;2022-07-22T09:24:39;22.20;64.90
12229;DHT22;6177;52.402;9.800;2022-07-22T09:27:39;22.10;65.20
12229;DHT22;6177;52.402;9.800;2022-07-22T09:30:48;21.90;65.50
12229;DHT22;6177;52.402;9.800;2022-07-22T09:33:33;21.80;65.40
12229;DHT22;6177;52.402;9.800;2022-07-22T09:36:57;21.60;65.70
12229;DHT22;6177;52.402;9.800;2022-07-22T09:39:44;21.40;66.00
12229;DHT22;6177;52.402;9.800;2022-07-22T09:42:42;21.30;66.30
12229;DHT22;6177;52.402;9.800;2022-07-22T09:45:28;21.20;66.10
12229;DHT22;6177;52.402;9.800;2022-07-22T09:48:13;21.20;66.70
12229;DHT22;6177;52.402;9.800;2022-07-22T09:51:23;21.20;66.80
12229;DHT22;6177;52.402;9.800;2022-07-22T09:54:28;21.50;67.20
12229;DHT22;6177;52.402;9.800;2022-07-22T09:57:13;21.80;66.70
12229;DHT22;6177;52.402;9.800;2022-07-22T09:59:58;22.20;66.40
12229;DHT22;6177;52.402;9.800;2022-07-22T10:03:04;22.60;65.80
12229;DHT22;6177;52.402;9.800;2022-07-22T10:05:51;23.00;65.20
12229;DHT22;6177;52.402;9.800;2022-07-22T10:08:36;23.30;64.50
12229;DHT22;6177;52.402;9.800;2022-07-22T10:11:21;23.30;64.00
12229;DHT22;6177;52.402;9.800;2022-07-22T10:14:06;23.00;63.60
12229;DHT22;6177;52.402;9.800;2022-07-22T10:16:51;22.50;64.60
12229;DHT22;6177;52.402;9.800;2022-07-22T10:19:35;22.30;64.90
12229;DHT22;6177;52.402;9.800;2022-07-22T10:25:47;22.10;65.20
12229;DHT22;6177;52.402;9.800;2022-07-22T10:28:33;22.10;65.10
12229;DHT22;6177;52.402;9.800;2022-07-22T10:31:19;22.10;64.80
12229;DHT22;6177;52.402;9.800;2022-07-22T10:34:04;22.20;65.00
12229;DHT22;6177;52.402;9.800;2022-07-22T10:36:48;22.60;64.30
12229;DHT22;6177;52.402;9.800;2022-07-22T10:39:33;22.80;64.00
12229;DHT22;6177;52.402;9.800;2022-07-22T10:42:17;23.00;63.20
12229;DHT22;6177;52.402;9.800;2022-07-22T10:45:02;23.00;63.00
12229;DHT22;6177;52.402;9.800;2022-07-22T10:47:53;23.00;62.90
12229;DHT22;6177;52.402;9.800;2022-07-22T10:50:39;23.00;62.80
12229;DHT22;6177;52.402;9.800;2022-07-22T10:56:34;22.80;62.90
12229;DHT22;6177;52.402;9.800;2022-07-22T10:59:19;22.50;63.10
12229;DHT22;6177;52.402;9.800;2022-07-22T11:02:05;22.20;63.60
12229;DHT22;6177;52.402;9.800;2022-07-22T11:04:50;22.00;64.30
12229;DHT22;6177;52.402;9.800;2022-07-22T11:07:40;22.00;64.50
12229;DHT22;6177;52.402;9.800;2022-07-22T11:10:24;21.90;64.90
12229;DHT22;6177;52.402;9.800;2022-07-22T11:13:09;21.90;64.70
12229;DHT22;6177;52.402;9.800;2022-07-22T11:15:53;21.90;64.90
12229;DHT22;6177;52.402;9.800;2022-07-22T11:18:47;21.90;64.50
12229;DHT22;6177;52.402;9.800;2022-07-22T11:21:32;21.90;64.70
12229;DHT22;6177;52.402;9.800;2022-07-22T11:24:17;21.90;64.50
12229;DHT22;6177;52.402;9.800;2022-07-22T11:27:02;21.90;64.60
12229;DHT22;6177;52.402;9.800;2022-07-22T11:29:47;22.10;64.30
12229;DHT22;6177;52.402;9.800;2022-07-22T11:32:32;22.20;64.00
12229;DHT22;6177;52.402;9.800;2022-07-22T11:35:17;22.20;63.90
12229;DHT22;6177;52.402;9.800;2022-07-22T11:38:19;22.30;63.90
12229;DHT22;6177;52.402;9.800;2022-07-22T11:42:04;22.30;63.50
12229;DHT22;6177;52.402;9.800;2022-07-22T11:45:00;22.30;63.80
12229;DHT22;6177;52.402;9.800;2022-07-22T11:51:04;22.70;63.30
12229;DHT22;6177;52.402;9.800;2022-07-22T11:57:13;23.20;60.70
12229;DHT22;6177;52.402;9.800;2022-07-22T12:00:05;23.10;60.10
12229;DHT22;6177;52.402;9.800;2022-07-22T12:03:22;22.90;59.80
12229;DHT22;6177;52.402;9.800;2022-07-22T12:06:21;22.80;60.10
12229;DHT22;6177;52.402;9.800;2022-07-22T12:09:07;22.70;60.30
12229;DHT22;6177;52.402;9.800;2022-07-22T12:11:53;22.80;60.00
12229;DHT22;6177;52.402;9.800;2022-07-22T12:14:44;22.80;60.00
12229;DHT22;6177;52.402;9.800;2022-07-22T12:17:29;22.90;59.70
12229;DHT22;6177;52.402;9.800;2022-07-22T12:20:14;22.90;59.40
12229;DHT22;6177;52.402;9.800;2022-07-22T12:22:59;23.00;59.10
12229;DHT22;6177;52.402;9.800;2022-07-22T12:25:53;22.90;57.00
12229;DHT22;6177;52.402;9.800;2022-07-22T12:28:38;22.90;56.60
12229;DHT22;6177;52.402;9.800;2022-07-22T12:31:23;22.70;57.30
12229;DHT22;6177;52.402;9.800;2022-07-22T12:34:08;22.70;57.80
12229;DHT22;6177;52.402;9.800;2022-07-22T12:36:52;22.60;57.80
12229;DHT22;6177;52.402;9.800;2022-07-22T12:39:37;22.60;56.90
12229;DHT22;6177;52.402;9.800;2022-07-22T12:42:22;22.50;58.00
12229;DHT22;6177;52.402;9.800;2022-07-22T12:45:11;22.50;58.10
12229;DHT22;6177;52.402;9.800;2022-07-22T12:48:00;22.50;57.80
12229;DHT22;6177;52.402;9.800;2022-07-22T12:53:36;22.50;57.60
12229;DHT22;6177;52.402;9.800;2022-07-22T12:56:21;22.40;57.90
12229;DHT22;6177;52.402;9.800;2022-07-22T12:59:05;22.50;57.60
12229;DHT22;6177;52.402;9.800;2022-07-22T13:01:50;22.50;57.70
12229;DHT22;6177;52.402;9.800;2022-07-22T13:04:34;22.60;57.50
12229;DHT22;6177;52.402;9.800;2022-07-22T13:07:18;22.60;57.50
12229;DHT22;6177;52.402;9.800;2022-07-22T13:10:02;22.60;57.70
12229;DHT22;6177;52.402;9.800;2022-07-22T13:12:47;22.60;57.40
12229;DHT22;6177;52.402;9.800;2022-07-22T13:15:33;22.70;57.50
12229;DHT22;6177;52.402;9.800;2022-07-22T13:18:18;22.80;57.50
12229;DHT22;6177;52.402;9.800;2022-07-22T13:21:02;22.90;56.50
12229;DHT22;6177;52.402;9.800;2022-07-22T13:23:47;22.90;56.10
12229;DHT22;6177;52.402;9.800;2022-07-22T13:26:31;22.90;56.30
12229;DHT22;6177;52.402;9.800;2022-07-22T13:29:16;23.20;56.70
12229;DHT22;6177;52.402;9.800;2022-07-22T13:32:01;23.30;56.20
12229;DHT22;6177;52.402;9.800;2022-07-22T13:34:45;23.30;55.40
12229;DHT22;6177;52.402;9.800;2022-07-22T13:37:29;23.30;55.50
12229;DHT22;6177;52.402;9.800;2022-07-22T13:40:14;23.30;55.70
12229;DHT22;6177;52.402;9.800;2022-07-22T13:42:59;23.20;55.00
12229;DHT22;6177;52.402;9.800;2022-07-22T13:45:43;23.10;55.30
12229;DHT22;6177;52.402;9.800;2022-07-22T13:48:27;23.10;55.60
12229;DHT22;6177;52.402;9.800;2022-07-22T13:51:12;23.10;55.70
12229;DHT22;6177;52.402;9.800;2022-07-22T13:53:56;23.20;55.80
12229;DHT22;6177;52.402;9.800;2022-07-22T13:56:40;23.20;55.40
12229;DHT22;6177;52.402;9.800;2022-07-22T13:59:25;23.30;55.20
12229;DHT22;6177;52.402;9.800;2022-07-22T14:02:10;23.40;55.10
12229;DHT22;6177;52.402;9.800;2022-07-22T14:04:54;23.20;55.30
12229;DHT22;6177;52.402;9.800;2022-07-22T14:07:39;23.20;55.70
12229;DHT22;6177;52.402;9.800;2022-07-22T14:10:24;23.20;55.90
12229;DHT22;6177;52.402;9.800;2022-07-22T14:13:09;23.10;55.10
12229;DHT22;6177;52.402;9.800;2022-07-22T14:15:53;22.90;55.60
12229;DHT22;6177;52.402;9.800;2022-07-22T14:18:37;22.70;56.10
12229;DHT22;6177;52.402;9.800;2022-07-22T14:21:21;22.50;56.90
12229;DHT22;6177;52.402;9.800;2022-07-22T14:24:06;22.40;57.30
12229;DHT22;6177;52.402;9.800;2022-07-22T14:26:50;22.40;57.30
12229;DHT22;6177;52.402;9.800;2022-07-22T14:29:34;22.50;57.70
12229;DHT22;6177;52.402;9.800;2022-07-22T14:32:19;22.50;57.30
12229;DHT22;6177;52.402;9.800;2022-07-22T14:35:03;22.50;57.60
12229;DHT22;6177;52.402;9.800;2022-07-22T14:37:50;22.40;57.30
12229;DHT22;6177;52.402;9.800;2022-07-22T14:40:34;22.40;57.70
12229;DHT22;6177;52.402;9.800;2022-07-22T14:43:18;22.40;57.70
12229;DHT22;6177;52.402;9.800;2022-07-22T14:46:03;22.30;57.70
12229;DHT22;6177;52.402;9.800;2022-07-22T14:48:48;22.30;57.60
12229;DHT22;6177;52.402;9.800;2022-07-22T14:51:36;22.20;57.80
12229;DHT22;6177;52.402;9.800;2022-07-22T14:54:21;22.20;58.10
12229;DHT22;6177;52.402;9.800;2022-07-22T14:57:05;22.30;58.20
12229;DHT22;6177;52.402;9.800;2022-07-22T14:59:49;22.20;58.30
12229;DHT22;6177;52.402;9.800;2022-07-22T15:02:34;22.20;58.70
12229;DHT22;6177;52.402;9.800;2022-07-22T15:05:18;22.20;59.20
12229;DHT22;6177;52.402;9.800;2022-07-22T15:08:03;22.20;58.50
12229;DHT22;6177;52.402;9.800;2022-07-22T15:10:48;22.10;58.70
12229;DHT22;6177;52.402;9.800;2022-07-22T15:13:32;22.00;59.00
12229;DHT22;6177;52.402;9.800;2022-07-22T15:16:16;22.10;59.20
12229;DHT22;6177;52.402;9.800;2022-07-22T15:19:00;22.10;58.90
12229;DHT22;6177;52.402;9.800;2022-07-22T15:21:45;22.10;58.60
12229;DHT22;6177;52.402;9.800;2022-07-22T15:24:31;22.10;58.80
12229;DHT22;6177;52.402;9.800;2022-07-22T15:27:15;22.10;58.80
12229;DHT22;6177;52.402;9.800;2022-07-22T15:30:00;22.20;58.60
12229;DHT22;6177;52.402;9.800;2022-07-22T15:32:45;22.20;58.30
12229;DHT22;6177;52.402;9.800;2022-07-22T15:35:29;22.10;58.30
12229;DHT22;6177;52.402;9.800;2022-07-22T15:38:13;22.20;58.60
12229;DHT22;6177;52.402;9.800;2022-07-22T15:40:58;22.30;58.60
12229;DHT22;6177;52.402;9.800;2022-07-22T15:43:42;22.30;58.30
12229;DHT22;6177;52.402;9.800;2022-07-22T15:46:26;22.30;58.20
12229;DHT22;6177;52.402;9.800;2022-07-22T15:49:10;22.30;58.40
12229;DHT22;6177;52.402;9.800;2022-07-22T15:51:55;22.20;58.40
12229;DHT22;6177;52.402;9.800;2022-07-22T15:54:39;22.20;58.10
12229;DHT22;6177;52.402;9.800;2022-07-22T15:57:25;22.20;58.30
12229;DHT22;6177;52.402;9.800;2022-07-22T16:00:28;22.10;57.70
12229;DHT22;6177;52.402;9.800;2022-07-22T16:03:13;22.00;57.80
12229;DHT22;6177;52.402;9.800;2022-07-22T16:05:57;21.90;57.80
12229;DHT22;6177;52.402;9.800;2022-07-22T16:08:42;21.90;58.70
12229;DHT22;6177;52.402;9.800;2022-07-22T16:11:26;21.80;59.00
12229;DHT22;6177;52.402;9.800;2022-07-22T16:14:10;21.70;59.50
12229;DHT22;6177;52.402;9.800;2022-07-22T16:16:54;21.70;59.00
12229;DHT22;6177;52.402;9.800;2022-07-22T16:19:38;21.60;59.60
12229;DHT22;6177;52.402;9.800;2022-07-22T16:22:23;21.60;60.00
12229;DHT22;6177;52.402;9.800;2022-07-22T16:25:07;21.60;60.10
12229;DHT22;6177;52.402;9.800;2022-07-22T16:27:51;21.60;60.20
12229;DHT22;6177;52.402;9.800;2022-07-22T16:30:36;21.60;60.20
12229;DHT22;6177;52.402;9.800;2022-07-22T16:33:21;21.50;60.30
12229;DHT22;6177;52.402;9.800;2022-07-22T16:36:05;21.50;60.20
12229;DHT22;6177;52.402;9.800;2022-07-22T16:38:50;21.60;60.30
12229;DHT22;6177;52.402;9.800;2022-07-22T16:41:34;21.60;60.30
12229;DHT22;6177;52.402;9.800;2022-07-22T16:44:18;21.60;60.30
12229;DHT22;6177;52.402;9.800;2022-07-22T16:47:02;21.60;60.20
12229;DHT22;6177;52.402;9.800;2022-07-22T16:49:50;21.50;60.30
12229;DHT22;6177;52.402;9.800;2022-07-22T16:52:34;21.50;60.30
12229;DHT22;6177;52.402;9.800;2022-07-22T16:55:19;21.50;60.00
12229;DHT22;6177;52.402;9.800;2022-07-22T16:58:03;21.40;59.70
12229;DHT22;6177;52.402;9.800;2022-07-22T17:00:47;21.30;60.00
12229;DHT22;6177;52.402;9.800;2022-07-22T17:03:32;21.20;60.10
12229;DHT22;6177;52.402;9.800;2022-07-22T17:06:16;21.20;60.20
12229;DHT22;6177;52.402;9.800;2022-07-22T17:09:00;21.20;60.40
12229;DHT22;6177;52.402;9.800;2022-07-22T17:11:44;21.20;60.50
12229;DHT22;6177;52.402;9.800;2022-07-22T17:14:29;21.20;60.30
12229;DHT22;6177;52.402;9.800;2022-07-22T17:17:13;21.20;60.30
12229;DHT22;6177;52.402;9.800;2022-07-22T17:19:58;21.20;60.40
12229;DHT22;6177;52.402;9.800;2022-07-22T17:22:42;21.20;60.30
12229;DHT22;6177;52.402;9.800;2022-07-22T17:25:26;21.30;60.40
12229;DHT22;6177;52.402;9.800;2022-07-22T17:28:11;21.20;60.40
12229;DHT22;6177;52.402;9.800;2022-07-22T17:30:56;21.10;60.50
12229;DHT22;6177;52.402;9.800;2022-07-22T17:33:41;21.00;60.60
12229;DHT22;6177;52.402;9.800;2022-07-22T17:36:25;21.00;60.80
12229;DHT22;6177;52.402;9.800;2022-07-22T17:39:10;20.90;60.90
12229;DHT22;6177;52.402;9.800;2022-07-22T17:41:54;20.90;61.00
12229;DHT22;6177;52.402;9.800;2022-07-22T17:44:38;20.80;61.10
12229;DHT22;6177;52.402;9.800;2022-07-22T17:47:23;20.70;61.20
12229;DHT22;6177;52.402;9.800;2022-07-22T17:50:07;20.70;61.20
12229;DHT22;6177;52.402;9.800;2022-07-22T17:52:52;20.70;61.30
12229;DHT22;6177;52.402;9.800;2022-07-22T17:55:36;20.60;61.40
12229;DHT22;6177;52.402;9.800;2022-07-22T17:58:21;20.70;61.40
12229;DHT22;6177;52.402;9.800;2022-07-22T18:01:05;20.70;61.30
12229;DHT22;6177;52.402;9.800;2022-07-22T18:03:50;20.80;61.00
12229;DHT22;6177;52.402;9.800;2022-07-22T18:06:35;20.70;61.10
12229;DHT22;6177;52.402;9.800;2022-07-22T18:09:19;20.70;61.30